Time;durP1;ratioP1;P1;durP2;ratioP2;P2;SDS_P1;SDS_P2;PMS_P1;PMS_P2;Temp;Humidity;BMP_temperature;BMP_pressure;BME280_temperature;BME280_humidity;BME280_pressure;Samples;Min_cycle;Max_cycle;Signal;HPM_P1;HPM_P2
2022/05/22 00:00:49;;;;;;;6.93;3.70;;;;;;;;;;765378;179;919547;-65
2022/05/22 00:03:15;;;;;;;4.20;3.20;;;;;;;;;;765273;177;918958;-64
2022/05/22 00:05:40;;;;;;;5.10;3.43;;;;;;;;;;767293;179;918722;-64
2022/05/22 00:08:06;;;;;;;9.20;4.47;;;;;;;;;;775730;180;918349;-64
2022/05/22 00:10:32;;;;;;;3.40;2.90;;;;;;;;;;765329;181;918466;-64
2022/05/22 00:12:58;;;;;;;6.33;2.80;;;;;;;;;;773776;178;918535;-64
2022/05/22 00:15:24;;;;;;;6.35;3.10;;;;;;;;;;779852;180;917860;-64
2022/05/22 00:17:50;;;;;;;4.23;3.63;;;;;;;;;;771936;179;919465;-64
2022/05/22 00:20:16;;;;;;;8.65;4.07;;;;;;;;;;774415;181;919073;-63
2022/05/22 00:22:41;;;;;;;4.50;3.10;;;;;;;;;;777925;181;918504;-64
2022/05/22 00:25:10;;;;;;;10.00;4.00;;;;;;;;;;762793;179;1019381;-64
2022/05/22 00:27:34;;;;;;;7.20;4.37;;;;;;;;;;770975;177;916120;-64
2022/05/22 00:30:00;;;;;;;5.60;3.95;;;;;;;;;;768676;177;916533;-64
2022/05/22 00:32:26;;;;;;;5.30;4.00;;;;;;;;;;763440;182;929556;-63
2022/05/22 00:34:52;;;;;;;4.30;3.40;;;;;;;;;;752091;184;919296;-64
2022/05/22 00:37:18;;;;;;;5.60;3.70;;;;;;;;;;753471;181;919504;-64
2022/05/22 00:39:44;;;;;;;6.00;3.90;;;;;;;;;;775288;178;902415;-64
2022/05/22 00:42:14;;;;;;;4.23;3.20;;;;;;;;;;766052;182;919466;-64
2022/05/22 00:44:40;;;;;;;5.85;3.78;;;;;;;;;;763430;184;919498;-64
2022/05/22 00:47:06;;;;;;;3.67;2.73;;;;;;;;;;768748;181;1021766;-64
2022/05/22 00:49:33;;;;;;;4.73;3.43;;;;;;;;;;769219;182;919479;-64
2022/05/22 00:51:58;;;;;;;7.70;3.53;;;;;;;;;;766107;182;919084;-64
2022/05/22 00:54:24;;;;;;;5.53;4.20;;;;;;;;;;763995;181;927543;-63
2022/05/22 00:56:50;;;;;;;11.50;4.00;;;;;;;;;;769194;181;919470;-64
2022/05/22 00:59:16;;;;;;;14.23;3.87;;;;;;;;;;768138;177;920069;-64
2022/05/22 01:01:42;;;;;;;5.57;3.30;;;;;;;;;;769508;180;919759;-63
2022/05/22 01:04:08;;;;;;;7.10;3.75;;;;;;;;;;776061;178;919413;-63
2022/05/22 01:06:34;;;;;;;3.83;2.70;;;;;;;;;;774551;180;919396;-64
2022/05/22 01:09:00;;;;;;;7.07;3.30;;;;;;;;;;763285;180;1785639;-65
2022/05/22 01:11:25;;;;;;;6.00;4.27;;;;;;;;;;769848;180;919727;-64
2022/05/22 01:13:53;;;;;;;5.17;3.20;;;;;;;;;;769214;182;919250;-63
2022/05/22 01:16:19;;;;;;;4.80;3.40;;;;;;;;;;767817;180;918795;-64
2022/05/22 01:18:45;;;;;;;4.70;3.77;;;;;;;;;;774807;181;920494;-64
2022/05/22 01:21:10;;;;;;;5.40;3.70;;;;;;;;;;781751;179;918877;-64
2022/05/22 01:23:36;;;;;;;5.47;3.23;;;;;;;;;;757675;183;919341;-64
2022/05/22 01:26:02;;;;;;;7.33;4.67;;;;;;;;;;763143;180;919527;-64
2022/05/22 01:28:28;;;;;;;5.00;3.60;;;;;;;;;;774863;179;919939;-63
2022/05/22 01:30:54;;;;;;;6.90;4.10;;;;;;;;;;771735;179;917399;-64
2022/05/22 01:33:20;;;;;;;7.45;4.50;;;;;;;;;;767747;180;926758;-64
2022/05/22 01:35:45;;;;;;;11.27;3.80;;;;;;;;;;776012;180;917849;-64
2022/05/22 01:38:11;;;;;;;5.70;3.97;;;;;;;;;;764831;181;919370;-63
2022/05/22 01:40:37;;;;;;;6.50;4.80;;;;;;;;;;763933;181;920607;-64
2022/05/22 01:43:03;;;;;;;4.10;3.60;;;;;;;;;;770858;180;916493;-63
2022/05/22 01:45:29;;;;;;;4.90;3.93;;;;;;;;;;770973;179;1019390;-63
2022/05/22 01:47:55;;;;;;;6.20;4.00;;;;;;;;;;765561;181;919345;-64
2022/05/22 01:50:21;;;;;;;10.53;4.53;;;;;;;;;;765562;179;919881;-64
2022/05/22 01:52:47;;;;;;;6.60;3.97;;;;;;;;;;775757;179;918487;-64
2022/05/22 01:55:13;;;;;;;5.80;3.40;;;;;;;;;;770837;180;919460;-63
2022/05/22 01:57:39;;;;;;;5.82;4.28;;;;;;;;;;771279;180;919583;-64
2022/05/22 02:00:05;;;;;;;5.50;3.90;;;;;;;;;;773394;181;918603;-63
2022/05/22 02:02:31;;;;;;;7.27;3.33;;;;;;;;;;771124;181;919216;-64
2022/05/22 02:04:57;;;;;;;6.73;4.40;;;;;;;;;;767775;182;919463;-64
2022/05/22 02:09:54;;;;;;;9.47;5.17;;;;;;;;;;768935;182;918838;-63
2022/05/22 02:12:20;;;;;;;5.62;4.15;;;;;;;;;;764157;182;919084;-63
2022/05/22 02:14:46;;;;;;;6.53;4.30;;;;;;;;;;768578;178;918577;-63
2022/05/22 02:17:12;;;;;;;5.83;4.10;;;;;;;;;;775706;181;918425;-63
2022/05/22 02:19:38;;;;;;;5.80;4.50;;;;;;;;;;765485;181;919702;-63
2022/05/22 02:22:04;;;;;;;9.60;4.60;;;;;;;;;;769649;181;1020897;-64
2022/05/22 02:24:30;;;;;;;6.27;4.40;;;;;;;;;;768320;181;918416;-63
2022/05/22 02:26:56;;;;;;;8.10;5.00;;;;;;;;;;760637;183;918462;-63
2022/05/22 02:29:21;;;;;;;6.57;4.87;;;;;;;;;;766377;182;918537;-64
2022/05/22 02:31:47;;;;;;;8.40;4.70;;;;;;;;;;770343;180;922746;-64
2022/05/22 02:34:13;;;;;;;7.00;5.40;;;;;;;;;;774775;178;919909;-63
2022/05/22 02:36:42;;;;;;;7.83;5.33;;;;;;;;;;771719;178;919287;-65
2022/05/22 02:39:08;;;;;;;9.67;5.60;;;;;;;;;;771007;180;1015543;-63
2022/05/22 02:41:33;;;;;;;9.10;7.07;;;;;;;;;;766927;183;914421;-63
2022/05/22 02:43:59;;;;;;;10.17;5.70;;;;;;;;;;767286;181;916420;-66
2022/05/22 02:46:25;;;;;;;11.10;5.20;;;;;;;;;;763661;179;915322;-63
2022/05/22 02:48:51;;;;;;;10.10;6.10;;;;;;;;;;772150;180;916426;-63
2022/05/22 02:51:17;;;;;;;11.33;5.80;;;;;;;;;;779982;179;920278;-63
2022/05/22 02:53:43;;;;;;;8.43;5.90;;;;;;;;;;761570;180;1015664;-63
2022/05/22 02:56:09;;;;;;;8.93;5.97;;;;;;;;;;771089;177;919729;-64
2022/05/22 02:58:35;;;;;;;7.13;5.57;;;;;;;;;;773871;180;944010;-64
2022/05/22 03:01:01;;;;;;;8.83;5.73;;;;;;;;;;771722;177;918472;-64
2022/05/22 03:03:27;;;;;;;10.33;5.40;;;;;;;;;;771429;178;941039;-63
2022/05/22 03:08:24;;;;;;;10.63;5.97;;;;;;;;;;773948;180;918647;-63
2022/05/22 03:10:50;;;;;;;9.33;5.80;;;;;;;;;;767640;180;917885;-64
2022/05/22 03:13:16;;;;;;;7.90;6.37;;;;;;;;;;765975;181;920241;-63
2022/05/22 03:15:42;;;;;;;8.77;5.93;;;;;;;;;;769104;181;913482;-64
2022/05/22 03:18:07;;;;;;;10.73;6.90;;;;;;;;;;771318;179;916027;-64
2022/05/22 03:20:33;;;;;;;9.83;6.90;;;;;;;;;;768926;179;1018760;-64
2022/05/22 03:22:59;;;;;;;11.13;7.43;;;;;;;;;;769252;178;915410;-64
2022/05/22 03:25:25;;;;;;;14.83;6.60;;;;;;;;;;764496;178;916041;-64
2022/05/22 03:27:51;;;;;;;11.53;7.10;;;;;;;;;;770394;178;1017117;-64
2022/05/22 03:30:17;;;;;;;11.80;6.93;;;;;;;;;;766680;182;915773;-64
2022/05/22 03:32:43;;;;;;;12.87;6.50;;;;;;;;;;765636;182;916774;-64
2022/05/22 03:35:09;;;;;;;9.60;6.60;;;;;;;;;;765744;177;916751;-64
2022/05/22 03:37:35;;;;;;;11.38;6.75;;;;;;;;;;767408;177;921227;-64
2022/05/22 03:40:01;;;;;;;12.37;7.23;;;;;;;;;;771272;179;916171;-64
2022/05/22 03:42:27;;;;;;;10.53;7.10;;;;;;;;;;765083;177;916176;-64
2022/05/22 03:44:52;;;;;;;13.83;7.20;;;;;;;;;;763739;179;1006970;-64
2022/05/22 03:47:18;;;;;;;11.93;7.87;;;;;;;;;;772641;178;915391;-65
2022/05/22 03:49:44;;;;;;;11.60;7.87;;;;;;;;;;770521;179;919788;-64
2022/05/22 03:52:10;;;;;;;12.83;7.60;;;;;;;;;;766973;177;919159;-65
2022/05/22 03:54:36;;;;;;;15.60;9.37;;;;;;;;;;771159;181;919007;-64
2022/05/22 03:57:02;;;;;;;14.13;9.13;;;;;;;;;;768882;180;918680;-64
2022/05/22 03:59:29;;;;;;;12.37;9.70;;;;;;;;;;766547;177;1021046;-64
2022/05/22 04:01:53;;;;;;;20.50;11.95;;;;;;;;;;765023;177;919307;-64
2022/05/22 04:04:19;;;;;;;21.10;11.53;;;;;;;;;;771783;178;919404;-66
2022/05/22 04:06:45;;;;;;;23.07;11.43;;;;;;;;;;767130;178;1011174;-64
2022/05/22 04:09:11;;;;;;;21.62;11.55;;;;;;;;;;766953;181;919487;-65
2022/05/22 04:11:37;;;;;;;16.23;9.40;;;;;;;;;;775155;180;919092;-65
2022/05/22 04:14:03;;;;;;;23.13;10.20;;;;;;;;;;772679;180;918796;-65
2022/05/22 04:16:28;;;;;;;16.23;9.00;;;;;;;;;;763509;178;918290;-64
2022/05/22 04:18:54;;;;;;;13.40;8.67;;;;;;;;;;773369;180;918490;-65
2022/05/22 04:21:20;;;;;;;14.43;9.13;;;;;;;;;;767861;178;919073;-65
2022/05/22 04:26:17;;;;;;;13.83;10.00;;;;;;;;;;768201;178;919388;-65
2022/05/22 04:28:43;;;;;;;12.77;8.37;;;;;;;;;;775067;178;919127;-65
2022/05/22 04:31:09;;;;;;;13.00;8.67;;;;;;;;;;771678;178;919758;-65
2022/05/22 04:33:35;;;;;;;15.83;9.43;;;;;;;;;;769972;177;919414;-65
2022/05/22 04:36:01;;;;;;;20.63;8.73;;;;;;;;;;781487;177;920702;-65
2022/05/22 04:38:27;;;;;;;14.07;8.90;;;;;;;;;;767048;177;1021318;-64
2022/05/22 04:40:53;;;;;;;18.83;9.95;;;;;;;;;;763429;181;919408;-65
2022/05/22 04:43:19;;;;;;;16.17;8.43;;;;;;;;;;763743;181;919187;-65
2022/05/22 04:45:45;;;;;;;13.07;8.97;;;;;;;;;;765167;183;919381;-64
2022/05/22 04:48:11;;;;;;;15.60;9.95;;;;;;;;;;767705;180;919785;-65
2022/05/22 04:50:37;;;;;;;11.97;7.67;;;;;;;;;;768644;178;919270;-64
2022/05/22 04:53:02;;;;;;;18.30;9.63;;;;;;;;;;771863;181;919308;-65
2022/05/22 04:55:28;;;;;;;13.27;8.37;;;;;;;;;;771212;180;923528;-66
2022/05/22 04:57:54;;;;;;;12.70;8.93;;;;;;;;;;772308;180;915855;-66
2022/05/22 05:00:20;;;;;;;14.07;8.15;;;;;;;;;;773219;178;915304;-65
2022/05/22 05:02:47;;;;;;;15.00;8.80;;;;;;;;;;771054;179;943613;-65
2022/05/22 05:05:12;;;;;;;11.82;8.27;;;;;;;;;;773370;179;919734;-65
2022/05/22 05:07:38;;;;;;;10.93;7.73;;;;;;;;;;772747;177;919346;-65
2022/05/22 05:10:04;;;;;;;8.27;6.70;;;;;;;;;;766193;179;919679;-66
2022/05/22 05:12:30;;;;;;;11.10;6.97;;;;;;;;;;768241;177;919692;-66
2022/05/22 05:14:55;;;;;;;11.13;7.30;;;;;;;;;;769230;181;919142;-65
2022/05/22 05:17:21;;;;;;;10.50;6.70;;;;;;;;;;773455;180;919864;-65
2022/05/22 05:19:47;;;;;;;9.70;7.87;;;;;;;;;;766594;180;919384;-65
2022/05/22 05:22:13;;;;;;;8.53;7.20;;;;;;;;;;766562;177;905844;-66
2022/05/22 05:24:39;;;;;;;9.63;6.93;;;;;;;;;;772667;180;906306;-65
2022/05/22 05:27:05;;;;;;;13.20;7.03;;;;;;;;;;768786;180;919956;-66
2022/05/22 05:29:31;;;;;;;14.40;8.40;;;;;;;;;;768294;180;919363;-65
2022/05/22 05:31:57;;;;;;;12.30;7.70;;;;;;;;;;773321;180;918374;-65
2022/05/22 05:34:22;;;;;;;8.10;5.20;;;;;;;;;;767212;180;919363;-65
2022/05/22 05:36:48;;;;;;;10.43;6.70;;;;;;;;;;766717;180;918902;-65
2022/05/22 05:39:14;;;;;;;11.53;5.97;;;;;;;;;;765447;177;919937;-64
2022/05/22 05:41:40;;;;;;;13.13;7.40;;;;;;;;;;769337;177;917630;-66
2022/05/22 05:44:06;;;;;;;10.87;6.20;;;;;;;;;;771414;180;919698;-67
2022/05/22 05:46:33;;;;;;;9.33;6.60;;;;;;;;;;763719;180;920053;-65
2022/05/22 05:48:59;;;;;;;9.90;5.80;;;;;;;;;;772333;177;931114;-65
2022/05/22 05:51:25;;;;;;;9.07;5.30;;;;;;;;;;762367;178;2147776;-66
2022/05/22 05:53:50;;;;;;;13.00;6.50;;;;;;;;;;761482;178;919493;-66
2022/05/22 05:56:17;;;;;;;9.70;6.10;;;;;;;;;;772620;178;917812;-66
2022/05/22 05:58:42;;;;;;;8.90;5.60;;;;;;;;;;763429;178;919620;-66
2022/05/22 06:01:10;;;;;;;10.07;7.05;;;;;;;;;;772377;180;919737;-66
2022/05/22 06:03:36;;;;;;;10.23;6.40;;;;;;;;;;767239;177;1021313;-66
2022/05/22 06:06:02;;;;;;;7.80;5.33;;;;;;;;;;774546;180;894623;-66
2022/05/22 06:08:28;;;;;;;7.10;5.23;;;;;;;;;;764090;177;1017952;-66
2022/05/22 06:10:53;;;;;;;8.10;5.77;;;;;;;;;;769858;179;919144;-67
2022/05/22 06:13:19;;;;;;;9.37;6.17;;;;;;;;;;774669;179;913612;-67
2022/05/22 06:15:46;;;;;;;9.07;5.80;;;;;;;;;;769862;181;713794;-67
2022/05/22 06:18:14;;;;;;;11.60;5.70;;;;;;;;;;770886;178;626070;-67
2022/05/22 06:20:42;;;;;;;5.80;4.70;;;;;;;;;;772678;177;625117;-68
2022/05/22 06:23:09;;;;;;;7.47;5.20;;;;;;;;;;771764;180;619038;-67
2022/05/22 06:25:37;;;;;;;16.40;5.10;;;;;;;;;;770031;179;923830;-69
2022/05/22 06:28:03;;;;;;;5.80;4.60;;;;;;;;;;772602;180;689081;-67
2022/05/22 06:30:29;;;;;;;8.03;5.20;;;;;;;;;;775090;177;636851;-67
2022/05/22 06:32:55;;;;;;;10.80;4.90;;;;;;;;;;771034;177;662756;-68
2022/05/22 06:35:20;;;;;;;7.73;5.20;;;;;;;;;;768967;178;622545;-68
2022/05/22 06:37:46;;;;;;;8.47;5.57;;;;;;;;;;772676;178;626404;-68
2022/05/22 06:40:12;;;;;;;8.47;5.60;;;;;;;;;;767905;178;620196;-68
2022/05/22 06:42:39;;;;;;;9.27;5.60;;;;;;;;;;767730;178;627434;-68
2022/05/22 06:45:13;;;;;;;9.47;5.60;;;;;;;;;;775544;179;645549;-69
2022/05/22 06:47:38;;;;;;;7.30;5.70;;;;;;;;;;776945;179;630204;-69
2022/05/22 06:50:05;;;;;;;9.83;5.30;;;;;;;;;;767776;180;634058;-69
2022/05/22 06:52:32;;;;;;;8.03;4.63;;;;;;;;;;771159;180;647525;-68
2022/05/22 06:54:56;;;;;;;16.13;4.67;;;;;;;;;;769605;180;630368;-68
2022/05/22 06:57:22;;;;;;;6.83;4.50;;;;;;;;;;771698;179;616670;-68
2022/05/22 06:59:48;;;;;;;6.60;4.70;;;;;;;;;;773184;178;629972;-68
2022/05/22 07:02:14;;;;;;;9.20;4.20;;;;;;;;;;772417;178;627707;-68
2022/05/22 07:04:40;;;;;;;11.07;4.80;;;;;;;;;;770475;180;1340277;-67
2022/05/22 07:07:06;;;;;;;6.27;4.30;;;;;;;;;;771531;181;617894;-70
2022/05/22 07:09:32;;;;;;;8.53;4.90;;;;;;;;;;772286;180;629540;-69
2022/05/22 07:11:59;;;;;;;8.10;4.60;;;;;;;;;;774216;181;618796;-68
2022/05/22 07:14:23;;;;;;;6.13;4.30;;;;;;;;;;772178;177;627103;-70
2022/05/22 07:16:49;;;;;;;5.27;4.10;;;;;;;;;;767214;181;637097;-70
2022/05/22 07:19:15;;;;;;;6.83;4.43;;;;;;;;;;767724;180;635304;-70
2022/05/22 07:21:41;;;;;;;7.93;4.93;;;;;;;;;;777525;181;615782;-70
2022/05/22 07:24:07;;;;;;;8.90;4.23;;;;;;;;;;764224;179;638450;-70
2022/05/22 07:26:34;;;;;;;10.67;5.30;;;;;;;;;;762806;179;635119;-69
2022/05/22 07:29:02;;;;;;;9.77;4.77;;;;;;;;;;775113;177;617534;-69
2022/05/22 07:31:29;;;;;;;8.80;5.47;;;;;;;;;;770919;180;639613;-69
2022/05/22 07:33:57;;;;;;;10.37;5.87;;;;;;;;;;766100;183;632039;-70
2022/05/22 07:36:24;;;;;;;9.23;4.87;;;;;;;;;;755300;184;638138;-69
2022/05/22 07:38:51;;;;;;;6.47;4.47;;;;;;;;;;767110;181;626993;-71
2022/05/22 07:41:17;;;;;;;6.90;4.70;;;;;;;;;;774098;177;625354;-70
2022/05/22 07:43:42;;;;;;;7.33;4.63;;;;;;;;;;771145;179;619132;-71
2022/05/22 07:46:08;;;;;;;10.50;4.30;;;;;;;;;;773183;180;632220;-68
2022/05/22 07:48:34;;;;;;;5.63;4.13;;;;;;;;;;772600;179;636191;-69
2022/05/22 07:51:00;;;;;;;9.30;4.30;;;;;;;;;;765674;180;632881;-69
2022/05/22 07:53:26;;;;;;;6.93;4.90;;;;;;;;;;774001;179;628426;-72
2022/05/22 07:55:52;;;;;;;5.40;4.00;;;;;;;;;;771127;180;624715;-71
2022/05/22 07:58:18;;;;;;;6.27;4.53;;;;;;;;;;771466;180;636825;-71
2022/05/22 08:00:44;;;;;;;5.80;4.40;;;;;;;;;;772370;178;927597;-71
2022/05/22 08:03:10;;;;;;;10.60;4.63;;;;;;;;;;776301;181;718245;-69
2022/05/22 08:05:35;;;;;;;4.90;4.30;;;;;;;;;;772060;177;629317;-70
2022/05/22 08:08:01;;;;;;;10.23;4.97;;;;;;;;;;770929;180;630647;-72
2022/05/22 08:10:27;;;;;;;6.17;3.60;;;;;;;;;;775637;178;872085;-70
2022/05/22 08:12:53;;;;;;;10.00;4.00;;;;;;;;;;768258;180;625815;-73
2022/05/22 08:15:19;;;;;;;10.90;3.50;;;;;;;;;;764107;181;644928;-70
2022/05/22 08:17:45;;;;;;;3.93;3.30;;;;;;;;;;772938;180;667846;-69
2022/05/22 08:20:12;;;;;;;5.73;3.53;;;;;;;;;;769118;181;678382;-68
2022/05/22 08:22:37;;;;;;;10.33;4.17;;;;;;;;;;764026;180;919141;-70
2022/05/22 08:25:04;;;;;;;10.43;3.70;;;;;;;;;;771431;180;919327;-70
2022/05/22 08:27:30;;;;;;;6.63;3.40;;;;;;;;;;778290;181;640537;-71
2022/05/22 08:29:55;;;;;;;6.30;3.70;;;;;;;;;;763624;181;638440;-68
2022/05/22 08:32:22;;;;;;;6.30;4.10;;;;;;;;;;771277;179;618690;-74
2022/05/22 08:34:47;;;;;;;8.90;3.43;;;;;;;;;;779111;179;679344;-72
2022/05/22 08:37:13;;;;;;;8.30;4.37;;;;;;;;;;770053;178;919158;-69
2022/05/22 08:39:39;;;;;;;7.77;3.50;;;;;;;;;;774354;177;634339;-71
2022/05/22 08:42:08;;;;;;;11.50;3.83;;;;;;;;;;779885;178;817223;-72
2022/05/22 08:44:34;;;;;;;5.50;3.50;;;;;;;;;;771690;180;918729;-70
2022/05/22 08:47:03;;;;;;;10.20;4.37;;;;;;;;;;761231;177;1646167;-72
2022/05/22 08:49:28;;;;;;;4.13;3.60;;;;;;;;;;772783;178;675196;-69
2022/05/22 08:52:10;;;;;;;6.00;4.00;;;;;;;;;;776199;179;725752;-68
2022/05/22 08:54:35;;;;;;;6.27;3.47;;;;;;;;;;780729;180;623259;-68
2022/05/22 08:59:37;;;;;;;6.43;4.03;;;;;;;;;;768101;181;623061;-70
2022/05/22 09:02:08;;;;;;;7.17;3.60;;;;;;;;;;772843;179;918104;-69
2022/05/22 09:04:35;;;;;;;8.40;3.93;;;;;;;;;;772272;178;624449;-71
2022/05/22 09:07:03;;;;;;;4.23;3.13;;;;;;;;;;769993;178;707662;-70
2022/05/22 09:09:28;;;;;;;7.33;4.00;;;;;;;;;;767337;178;620752;-69
2022/05/22 09:12:08;;;;;;;6.27;4.00;;;;;;;;;;770877;184;630947;-70
2022/05/22 09:14:39;;;;;;;6.40;3.67;;;;;;;;;;771394;178;625199;-70
2022/05/22 09:17:05;;;;;;;7.07;3.13;;;;;;;;;;776346;177;622180;-69
2022/05/22 09:19:36;;;;;;;8.13;4.00;;;;;;;;;;771167;181;628088;-70
2022/05/22 09:22:03;;;;;;;6.90;3.60;;;;;;;;;;771792;178;783194;-69
2022/05/22 09:24:30;;;;;;;9.40;4.50;;;;;;;;;;776183;180;623207;-68
2022/05/22 09:27:06;;;;;;;9.90;4.37;;;;;;;;;;766470;180;918823;-70
2022/05/22 09:29:34;;;;;;;8.38;3.78;;;;;;;;;;770592;180;919562;-69
2022/05/22 09:32:04;;;;;;;5.75;3.30;;;;;;;;;;767616;180;919149;-70
2022/05/22 09:34:31;;;;;;;7.33;3.70;;;;;;;;;;768075;180;638882;-67
2022/05/22 09:36:58;;;;;;;4.67;2.90;;;;;;;;;;775917;178;634762;-70
2022/05/22 09:39:30;;;;;;;10.03;3.50;;;;;;;;;;772154;180;629122;-69
2022/05/22 09:42:15;;;;;;;4.33;2.57;;;;;;;;;;772444;179;624764;-74
2022/05/22 09:44:41;;;;;;;6.23;3.20;;;;;;;;;;781735;178;630519;-70
2022/05/22 09:47:08;;;;;;;12.80;3.07;;;;;;;;;;771009;178;626730;-70
2022/05/22 09:49:37;;;;;;;8.13;3.67;;;;;;;;;;774329;178;616861;-69
2022/05/22 09:52:04;;;;;;;7.33;2.90;;;;;;;;;;774106;178;799361;-71
2022/05/22 09:54:32;;;;;;;5.47;2.50;;;;;;;;;;772950;178;635815;-71
2022/05/22 09:57:01;;;;;;;10.70;3.07;;;;;;;;;;780017;177;617516;-75
2022/05/22 09:59:27;;;;;;;4.37;2.93;;;;;;;;;;778412;179;618970;-73
2022/05/22 10:01:53;;;;;;;3.83;2.50;;;;;;;;;;776161;177;668677;-73
2022/05/22 10:04:22;;;;;;;6.90;3.17;;;;;;;;;;774509;180;633752;-71
2022/05/22 10:07:04;;;;;;;5.93;2.67;;;;;;;;;;771411;182;632938;-67
2022/05/22 10:09:34;;;;;;;6.13;2.50;;;;;;;;;;779192;180;623455;-68
2022/05/22 10:12:00;;;;;;;5.43;2.87;;;;;;;;;;767187;181;633883;-71
2022/05/22 10:14:31;;;;;;;6.80;3.00;;;;;;;;;;765314;183;639752;-69
2022/05/22 10:17:00;;;;;;;4.00;2.40;;;;;;;;;;772926;178;646461;-70
2022/05/22 10:19:32;;;;;;;4.70;2.40;;;;;;;;;;782753;177;658536;-70
2022/05/22 10:21:58;;;;;;;6.50;2.67;;;;;;;;;;769811;179;705346;-72
2022/05/22 10:24:30;;;;;;;5.13;2.20;;;;;;;;;;769427;180;623007;-69
2022/05/22 10:26:56;;;;;;;4.87;2.15;;;;;;;;;;768394;179;918640;-71
2022/05/22 10:29:28;;;;;;;7.33;2.50;;;;;;;;;;775688;177;911872;-70
2022/05/22 10:31:52;;;;;;;5.03;2.20;;;;;;;;;;768976;178;617091;-69
2022/05/22 10:34:34;;;;;;;6.73;2.50;;;;;;;;;;766970;180;657828;-70
2022/05/22 10:37:00;;;;;;;10.40;2.10;;;;;;;;;;774338;180;645128;-69
2022/05/22 10:39:25;;;;;;;7.00;2.47;;;;;;;;;;773038;180;618558;-71
2022/05/22 10:44:42;;;;;;;6.00;2.93;;;;;;;;;;763261;183;618912;-70
2022/05/22 10:47:08;;;;;;;6.17;3.47;;;;;;;;;;774855;177;630544;-70
2022/05/22 10:49:34;;;;;;;4.93;2.60;;;;;;;;;;776249;180;628112;-71
2022/05/22 10:52:00;;;;;;;5.03;2.20;;;;;;;;;;778156;179;632598;-71
2022/05/22 10:54:28;;;;;;;4.60;2.20;;;;;;;;;;768480;181;629005;-71
2022/05/22 10:56:52;;;;;;;6.30;2.70;;;;;;;;;;771839;177;627868;-73
2022/05/22 10:59:18;;;;;;;4.60;2.40;;;;;;;;;;774315;178;901996;-72
2022/05/22 11:01:44;;;;;;;4.80;2.13;;;;;;;;;;774208;176;644904;-72
2022/05/22 11:04:10;;;;;;;7.33;3.13;;;;;;;;;;768302;181;710803;-73
2022/05/22 11:06:36;;;;;;;6.50;2.57;;;;;;;;;;772365;176;916920;-73
2022/05/22 11:09:02;;;;;;;6.40;2.40;;;;;;;;;;779414;179;719646;-72
2022/05/22 11:11:29;;;;;;;5.97;2.60;;;;;;;;;;777710;179;632987;-71
2022/05/22 11:13:54;;;;;;;6.20;2.37;;;;;;;;;;773693;178;622683;-72
2022/05/22 11:16:20;;;;;;;3.93;2.20;;;;;;;;;;772445;181;627893;-71
2022/05/22 11:18:46;;;;;;;5.40;2.37;;;;;;;;;;771909;181;633565;-71
2022/05/22 11:21:27;;;;;;;3.43;2.20;;;;;;;;;;769933;180;815935;-69
2022/05/22 11:23:55;;;;;;;5.23;2.27;;;;;;;;;;769944;177;621270;-71
2022/05/22 11:26:25;;;;;;;3.70;2.17;;;;;;;;;;775543;177;630843;-72
2022/05/22 11:28:53;;;;;;;4.80;2.40;;;;;;;;;;775899;178;616157;-73
2022/05/22 11:31:23;;;;;;;3.33;2.10;;;;;;;;;;768146;177;919461;-73
2022/05/22 11:33:55;;;;;;;5.40;2.67;;;;;;;;;;774873;179;655985;-71
2022/05/22 11:36:37;;;;;;;3.60;2.53;;;;;;;;;;773939;180;907878;-69
2022/05/22 11:39:03;;;;;;;3.60;2.13;;;;;;;;;;778254;180;919023;-72
2022/05/22 11:41:29;;;;;;;8.03;2.77;;;;;;;;;;775985;179;630078;-72
2022/05/22 11:43:59;;;;;;;5.67;2.70;;;;;;;;;;769632;179;645421;-69
2022/05/22 11:46:29;;;;;;;4.43;1.73;;;;;;;;;;771782;178;918406;-73
2022/05/22 11:49:01;;;;;;;4.87;2.17;;;;;;;;;;770835;177;640756;-73
2022/05/22 11:51:40;;;;;;;5.90;2.57;;;;;;;;;;777926;178;634646;-70
2022/05/22 11:54:07;;;;;;;5.70;2.20;;;;;;;;;;780788;180;625585;-73
2022/05/22 11:56:53;;;;;;;5.70;2.50;;;;;;;;;;777110;180;631617;-70
2022/05/22 11:59:19;;;;;;;4.87;2.40;;;;;;;;;;771300;181;632393;-68
2022/05/22 12:01:56;;;;;;;5.83;2.10;;;;;;;;;;769151;181;629026;-70
2022/05/22 12:04:23;;;;;;;5.03;2.00;;;;;;;;;;770455;181;918586;-70
2022/05/22 12:06:54;;;;;;;2.90;1.70;;;;;;;;;;772942;180;627426;-72
2022/05/22 12:09:22;;;;;;;3.00;1.90;;;;;;;;;;771917;180;894670;-73
2022/05/22 12:11:54;;;;;;;15.53;2.90;;;;;;;;;;770047;176;919297;-70
2022/05/22 12:14:21;;;;;;;8.55;2.42;;;;;;;;;;770543;177;919632;-69
2022/05/22 12:16:48;;;;;;;3.70;2.23;;;;;;;;;;771967;180;627049;-70
2022/05/22 12:19:14;;;;;;;4.30;2.00;;;;;;;;;;782294;179;636305;-69
2022/05/22 12:21:55;;;;;;;4.73;2.50;;;;;;;;;;773802;177;658250;-72
2022/05/22 12:24:23;;;;;;;4.07;2.50;;;;;;;;;;777530;178;627782;-74
2022/05/22 12:26:49;;;;;;;7.20;3.50;;;;;;;;;;770334;179;667286;-71
2022/05/22 12:29:15;;;;;;;3.47;2.73;;;;;;;;;;772017;179;628146;-69
2022/05/22 12:31:42;;;;;;;4.40;2.70;;;;;;;;;;769397;180;703554;-70
2022/05/22 12:34:07;;;;;;;3.57;2.60;;;;;;;;;;767430;181;626796;-73
2022/05/22 12:36:33;;;;;;;4.10;2.47;;;;;;;;;;774604;177;637882;-71
2022/05/22 12:38:59;;;;;;;5.33;2.23;;;;;;;;;;770624;180;628519;-69
2022/05/22 12:41:30;;;;;;;6.00;2.43;;;;;;;;;;771970;181;621228;-73
2022/05/22 12:43:56;;;;;;;6.30;2.70;;;;;;;;;;769795;178;623966;-71
2022/05/22 12:46:22;;;;;;;3.77;2.10;;;;;;;;;;774698;180;620340;-74
2022/05/22 12:48:48;;;;;;;6.53;2.20;;;;;;;;;;772177;179;621610;-71
2022/05/22 12:51:22;;;;;;;6.07;2.30;;;;;;;;;;768041;180;630312;-71
2022/05/22 12:53:48;;;;;;;3.50;2.47;;;;;;;;;;770232;180;918528;-70
2022/05/22 12:56:18;;;;;;;4.23;2.23;;;;;;;;;;774814;180;715205;-72
2022/05/22 12:58:47;;;;;;;9.20;2.77;;;;;;;;;;771622;178;620551;-72
2022/05/22 13:01:19;;;;;;;3.90;3.00;;;;;;;;;;770002;177;631335;-72
2022/05/22 13:03:44;;;;;;;3.80;2.50;;;;;;;;;;770314;177;620182;-70
2022/05/22 13:06:14;;;;;;;3.87;2.33;;;;;;;;;;770807;179;919052;-70
2022/05/22 13:08:40;;;;;;;9.20;3.20;;;;;;;;;;769617;178;664914;-70
2022/05/22 13:11:08;;;;;;;3.73;2.30;;;;;;;;;;767636;178;627346;-72
2022/05/22 13:13:33;;;;;;;5.10;3.10;;;;;;;;;;768663;179;636466;-68
2022/05/22 13:16:02;;;;;;;5.87;2.80;;;;;;;;;;773923;178;630027;-70
2022/05/22 13:18:28;;;;;;;3.10;2.50;;;;;;;;;;770026;177;647230;-69
2022/05/22 13:20:54;;;;;;;5.00;3.40;;;;;;;;;;774859;178;626566;-70
2022/05/22 13:23:35;;;;;;;3.80;2.03;;;;;;;;;;778555;181;630252;-69
2022/05/22 13:26:04;;;;;;;9.37;2.50;;;;;;;;;;778038;177;624366;-68
2022/05/22 13:28:47;;;;;;;4.03;2.40;;;;;;;;;;770611;177;653737;-68
2022/05/22 13:31:22;;;;;;;5.77;3.20;;;;;;;;;;770910;177;622197;-70
2022/05/22 13:33:49;;;;;;;8.47;2.23;;;;;;;;;;771560;179;624441;-71
2022/05/22 13:36:15;;;;;;;4.93;2.97;;;;;;;;;;769006;179;627601;-69
2022/05/22 13:38:41;;;;;;;5.10;2.50;;;;;;;;;;776301;180;645940;-69
2022/05/22 13:41:11;;;;;;;5.03;2.60;;;;;;;;;;768957;178;618906;-68
2022/05/22 13:43:58;;;;;;;7.57;2.70;;;;;;;;;;770990;180;625203;-71
2022/05/22 13:46:26;;;;;;;4.30;2.83;;;;;;;;;;774370;179;917706;-69
2022/05/22 13:48:58;;;;;;;4.53;2.57;;;;;;;;;;771208;180;647185;-69
2022/05/22 13:54:23;;;;;;;3.83;2.43;;;;;;;;;;763155;180;786778;-69
2022/05/22 13:56:49;;;;;;;6.90;2.60;;;;;;;;;;770993;181;644160;-70
2022/05/22 13:59:21;;;;;;;4.97;3.37;;;;;;;;;;779384;180;628167;-71
2022/05/22 14:01:47;;;;;;;8.93;2.30;;;;;;;;;;769632;178;631927;-72
2022/05/22 14:04:13;;;;;;;10.23;2.63;;;;;;;;;;770474;180;619380;-71
2022/05/22 14:06:43;;;;;;;9.60;3.00;;;;;;;;;;772864;177;707766;-70
2022/05/22 14:09:09;;;;;;;5.70;2.60;;;;;;;;;;774415;179;619225;-72
2022/05/22 14:11:35;;;;;;;7.90;2.47;;;;;;;;;;770615;180;628233;-72
2022/05/22 14:14:02;;;;;;;4.30;2.50;;;;;;;;;;768606;181;626818;-75
2022/05/22 14:16:28;;;;;;;4.93;2.03;;;;;;;;;;770816;178;914291;-70
2022/05/22 14:18:57;;;;;;;5.33;2.40;;;;;;;;;;767298;178;910728;-73
2022/05/22 14:21:23;;;;;;;6.40;2.10;;;;;;;;;;770829;179;623729;-68
2022/05/22 14:26:21;;;;;;;4.63;2.50;;;;;;;;;;771781;181;909318;-72
2022/05/22 14:28:47;;;;;;;10.53;4.37;;;;;;;;;;771303;179;919914;-71
2022/05/22 14:31:13;;;;;;;5.83;3.30;;;;;;;;;;768648;177;631059;-72
2022/05/22 14:33:38;;;;;;;7.83;2.20;;;;;;;;;;774584;179;663459;-70
2022/05/22 14:36:04;;;;;;;9.50;2.70;;;;;;;;;;771527;177;637742;-72
2022/05/22 14:38:31;;;;;;;4.07;2.03;;;;;;;;;;776006;179;630464;-70
2022/05/22 14:40:58;;;;;;;6.23;3.53;;;;;;;;;;773078;177;643994;-72
2022/05/22 14:43:34;;;;;;;5.00;2.33;;;;;;;;;;771681;179;623721;-71